sensor_id;sensor_type;location;lat;lon;timestamp;P1;durP1;ratioP1;P2;durP2;ratioP2
54883;SDS011;40776;52.880;6.016;2023-07-29T00:01:47;9.90;;;6.80;;
54883;SDS011;40776;52.880;6.016;2023-07-29T00:04:14;9.45;;;6.53;;
54883;SDS011;40776;52.880;6.016;2023-07-29T00:06:40;9.00;;;7.28;;
54883;SDS011;40776;52.880;6.016;2023-07-29T00:09:06;11.85;;;7.47;;
54883;SDS011;40776;52.880;6.016;2023-07-29T00:11:32;8.38;;;7.05;;
54883;SDS011;40776;52.880;6.016;2023-07-29T00:14:02;10.25;;;8.45;;
54883;SDS011;40776;52.880;6.016;2023-07-29T00:16:28;9.65;;;7.53;;
54883;SDS011;40776;52.880;6.016;2023-07-29T00:18:54;12.02;;;7.80;;
54883;SDS011;40776;52.880;6.016;2023-07-29T00:21:20;12.10;;;7.38;;
54883;SDS011;40776;52.880;6.016;2023-07-29T00:23:46;9.70;;;7.05;;
54883;SDS011;40776;52.880;6.016;2023-07-29T00:26:12;10.63;;;7.97;;
54883;SDS011;40776;52.880;6.016;2023-07-29T00:28:38;10.77;;;7.72;;
54883;SDS011;40776;52.880;6.016;2023-07-29T00:31:04;12.93;;;8.65;;
54883;SDS011;40776;52.880;6.016;2023-07-29T00:33:30;9.63;;;7.82;;
54883;SDS011;40776;52.880;6.016;2023-07-29T00:35:57;11.85;;;7.90;;
54883;SDS011;40776;52.880;6.016;2023-07-29T00:38:26;11.88;;;7.63;;
54883;SDS011;40776;52.880;6.016;2023-07-29T00:40:52;11.95;;;7.95;;
54883;SDS011;40776;52.880;6.016;2023-07-29T00:43:18;12.13;;;7.60;;
54883;SDS011;40776;52.880;6.016;2023-07-29T00:45:45;11.05;;;7.72;;
54883;SDS011;40776;52.880;6.016;2023-07-29T00:48:11;13.27;;;8.13;;
54883;SDS011;40776;52.880;6.016;2023-07-29T00:50:37;11.25;;;6.90;;
54883;SDS011;40776;52.880;6.016;2023-07-29T00:53:03;10.93;;;7.30;;
54883;SDS011;40776;52.880;6.016;2023-07-29T00:55:29;8.40;;;6.60;;
54883;SDS011;40776;52.880;6.016;2023-07-29T00:57:55;9.90;;;7.40;;
54883;SDS011;40776;52.880;6.016;2023-07-29T01:00:21;11.70;;;7.95;;
54883;SDS011;40776;52.880;6.016;2023-07-29T01:02:48;12.77;;;7.68;;
54883;SDS011;40776;52.880;6.016;2023-07-29T01:05:14;10.15;;;7.13;;
54883;SDS011;40776;52.880;6.016;2023-07-29T01:07:46;11.77;;;8.13;;
54883;SDS011;40776;52.880;6.016;2023-07-29T01:12:48;10.65;;;7.28;;
54883;SDS011;40776;52.880;6.016;2023-07-29T01:17:52;10.20;;;7.90;;
54883;SDS011;40776;52.880;6.016;2023-07-29T01:20:20;10.43;;;7.80;;
54883;SDS011;40776;52.880;6.016;2023-07-29T01:22:46;9.55;;;7.43;;
54883;SDS011;40776;52.880;6.016;2023-07-29T01:25:13;10.80;;;7.30;;
54883;SDS011;40776;52.880;6.016;2023-07-29T01:27:40;12.00;;;8.00;;
54883;SDS011;40776;52.880;6.016;2023-07-29T01:30:06;12.07;;;7.72;;
54883;SDS011;40776;52.880;6.016;2023-07-29T01:32:37;13.57;;;7.63;;
54883;SDS011;40776;52.880;6.016;2023-07-29T01:35:10;9.90;;;7.50;;
54883;SDS011;40776;52.880;6.016;2023-07-29T01:37:38;14.30;;;8.95;;
54883;SDS011;40776;52.880;6.016;2023-07-29T01:40:06;12.73;;;7.78;;
54883;SDS011;40776;52.880;6.016;2023-07-29T01:42:33;13.82;;;8.70;;
54883;SDS011;40776;52.880;6.016;2023-07-29T01:44:59;11.13;;;7.70;;
54883;SDS011;40776;52.880;6.016;2023-07-29T01:47:25;10.48;;;7.68;;
54883;SDS011;40776;52.880;6.016;2023-07-29T01:49:51;13.85;;;7.80;;
54883;SDS011;40776;52.880;6.016;2023-07-29T01:52:17;13.57;;;7.88;;
54883;SDS011;40776;52.880;6.016;2023-07-29T01:54:43;12.45;;;7.60;;
54883;SDS011;40776;52.880;6.016;2023-07-29T01:57:09;10.15;;;7.60;;
54883;SDS011;40776;52.880;6.016;2023-07-29T01:59:36;11.80;;;6.57;;
54883;SDS011;40776;52.880;6.016;2023-07-29T02:02:02;11.05;;;8.20;;
54883;SDS011;40776;52.880;6.016;2023-07-29T02:04:28;10.13;;;7.63;;
54883;SDS011;40776;52.880;6.016;2023-07-29T02:06:54;9.73;;;6.93;;
54883;SDS011;40776;52.880;6.016;2023-07-29T02:09:20;11.57;;;7.50;;
54883;SDS011;40776;52.880;6.016;2023-07-29T02:11:46;9.48;;;6.55;;
54883;SDS011;40776;52.880;6.016;2023-07-29T02:14:12;12.38;;;6.85;;
54883;SDS011;40776;52.880;6.016;2023-07-29T02:16:38;9.02;;;6.38;;
54883;SDS011;40776;52.880;6.016;2023-07-29T02:19:04;10.75;;;7.38;;
54883;SDS011;40776;52.880;6.016;2023-07-29T02:21:30;11.25;;;6.25;;
54883;SDS011;40776;52.880;6.016;2023-07-29T02:23:56;12.35;;;6.25;;
54883;SDS011;40776;52.880;6.016;2023-07-29T02:26:23;9.38;;;5.82;;
54883;SDS011;40776;52.880;6.016;2023-07-29T02:28:49;11.02;;;5.78;;
54883;SDS011;40776;52.880;6.016;2023-07-29T02:31:16;7.55;;;5.35;;
54883;SDS011;40776;52.880;6.016;2023-07-29T02:33:42;7.97;;;5.22;;
54883;SDS011;40776;52.880;6.016;2023-07-29T02:36:08;7.72;;;4.85;;
54883;SDS011;40776;52.880;6.016;2023-07-29T02:38:35;9.93;;;4.85;;
54883;SDS011;40776;52.880;6.016;2023-07-29T02:41:01;9.73;;;4.93;;
54883;SDS011;40776;52.880;6.016;2023-07-29T02:43:27;9.07;;;6.35;;
54883;SDS011;40776;52.880;6.016;2023-07-29T02:45:53;9.30;;;4.28;;
54883;SDS011;40776;52.880;6.016;2023-07-29T02:48:19;6.40;;;4.20;;
54883;SDS011;40776;52.880;6.016;2023-07-29T02:50:45;11.27;;;4.57;;
54883;SDS011;40776;52.880;6.016;2023-07-29T02:53:11;7.60;;;3.97;;
54883;SDS011;40776;52.880;6.016;2023-07-29T02:55:40;9.60;;;4.15;;
54883;SDS011;40776;52.880;6.016;2023-07-29T02:58:06;8.98;;;3.88;;
54883;SDS011;40776;52.880;6.016;2023-07-29T03:00:32;9.60;;;4.53;;
54883;SDS011;40776;52.880;6.016;2023-07-29T03:02:59;5.38;;;3.70;;
54883;SDS011;40776;52.880;6.016;2023-07-29T03:05:28;4.72;;;3.40;;
54883;SDS011;40776;52.880;6.016;2023-07-29T03:07:54;6.70;;;3.58;;
54883;SDS011;40776;52.880;6.016;2023-07-29T03:10:20;7.65;;;3.60;;
54883;SDS011;40776;52.880;6.016;2023-07-29T03:12:47;6.57;;;3.42;;
54883;SDS011;40776;52.880;6.016;2023-07-29T03:15:13;6.20;;;3.58;;
54883;SDS011;40776;52.880;6.016;2023-07-29T03:17:39;9.80;;;3.88;;
54883;SDS011;40776;52.880;6.016;2023-07-29T03:20:05;8.77;;;3.53;;
54883;SDS011;40776;52.880;6.016;2023-07-29T03:22:31;6.45;;;3.75;;
54883;SDS011;40776;52.880;6.016;2023-07-29T03:24:57;5.93;;;3.30;;
54883;SDS011;40776;52.880;6.016;2023-07-29T03:27:26;5.32;;;3.65;;
54883;SDS011;40776;52.880;6.016;2023-07-29T03:29:52;5.75;;;3.05;;
54883;SDS011;40776;52.880;6.016;2023-07-29T03:32:18;6.78;;;3.20;;
54883;SDS011;40776;52.880;6.016;2023-07-29T03:34:44;6.10;;;2.92;;
54883;SDS011;40776;52.880;6.016;2023-07-29T03:37:10;6.65;;;3.10;;
54883;SDS011;40776;52.880;6.016;2023-07-29T03:39:36;10.82;;;3.65;;
54883;SDS011;40776;52.880;6.016;2023-07-29T03:42:02;8.73;;;3.17;;
54883;SDS011;40776;52.880;6.016;2023-07-29T03:44:28;4.47;;;2.75;;
54883;SDS011;40776;52.880;6.016;2023-07-29T03:46:56;11.50;;;4.70;;
54883;SDS011;40776;52.880;6.016;2023-07-29T03:49:22;7.15;;;3.30;;
54883;SDS011;40776;52.880;6.016;2023-07-29T03:51:48;9.05;;;3.25;;
54883;SDS011;40776;52.880;6.016;2023-07-29T03:54:14;5.43;;;3.13;;
54883;SDS011;40776;52.880;6.016;2023-07-29T03:56:40;5.45;;;3.70;;
54883;SDS011;40776;52.880;6.016;2023-07-29T03:59:06;5.65;;;3.17;;
54883;SDS011;40776;52.880;6.016;2023-07-29T04:01:32;7.47;;;2.70;;
54883;SDS011;40776;52.880;6.016;2023-07-29T04:03:59;6.80;;;2.90;;
54883;SDS011;40776;52.880;6.016;2023-07-29T04:06:25;4.50;;;2.90;;
54883;SDS011;40776;52.880;6.016;2023-07-29T04:08:51;8.32;;;2.97;;
54883;SDS011;40776;52.880;6.016;2023-07-29T04:11:17;5.97;;;2.80;;
54883;SDS011;40776;52.880;6.016;2023-07-29T04:13:43;7.53;;;2.88;;
54883;SDS011;40776;52.880;6.016;2023-07-29T04:16:09;6.07;;;2.50;;
54883;SDS011;40776;52.880;6.016;2023-07-29T04:18:35;8.38;;;3.10;;
54883;SDS011;40776;52.880;6.016;2023-07-29T04:21:01;7.05;;;2.85;;
54883;SDS011;40776;52.880;6.016;2023-07-29T04:23:27;4.35;;;2.72;;
54883;SDS011;40776;52.880;6.016;2023-07-29T04:25:53;5.07;;;2.50;;
54883;SDS011;40776;52.880;6.016;2023-07-29T04:28:19;4.43;;;2.40;;
54883;SDS011;40776;52.880;6.016;2023-07-29T04:30:45;6.72;;;2.40;;
54883;SDS011;40776;52.880;6.016;2023-07-29T04:33:11;10.02;;;2.58;;
54883;SDS011;40776;52.880;6.016;2023-07-29T04:35:38;4.85;;;2.60;;
54883;SDS011;40776;52.880;6.016;2023-07-29T04:38:04;4.75;;;2.38;;
54883;SDS011;40776;52.880;6.016;2023-07-29T04:40:32;3.13;;;2.47;;
54883;SDS011;40776;52.880;6.016;2023-07-29T04:45:29;4.53;;;2.75;;
54883;SDS011;40776;52.880;6.016;2023-07-29T04:47:56;6.70;;;2.35;;
54883;SDS011;40776;52.880;6.016;2023-07-29T04:50:22;5.93;;;2.40;;
54883;SDS011;40776;52.880;6.016;2023-07-29T04:52:48;5.53;;;2.42;;
54883;SDS011;40776;52.880;6.016;2023-07-29T04:55:14;9.07;;;2.60;;
54883;SDS011;40776;52.880;6.016;2023-07-29T04:57:40;4.03;;;2.22;;
54883;SDS011;40776;52.880;6.016;2023-07-29T05:00:06;6.30;;;2.10;;
54883;SDS011;40776;52.880;6.016;2023-07-29T05:02:33;6.43;;;2.45;;
54883;SDS011;40776;52.880;6.016;2023-07-29T05:04:59;4.88;;;1.80;;
54883;SDS011;40776;52.880;6.016;2023-07-29T05:07:25;8.40;;;2.58;;
54883;SDS011;40776;52.880;6.016;2023-07-29T05:09:51;6.78;;;2.60;;
54883;SDS011;40776;52.880;6.016;2023-07-29T05:12:17;4.72;;;2.10;;
54883;SDS011;40776;52.880;6.016;2023-07-29T05:14:43;3.58;;;2.10;;
54883;SDS011;40776;52.880;6.016;2023-07-29T05:17:09;6.35;;;2.30;;
54883;SDS011;40776;52.880;6.016;2023-07-29T05:19:35;5.63;;;2.03;;
54883;SDS011;40776;52.880;6.016;2023-07-29T05:22:01;6.10;;;2.05;;
54883;SDS011;40776;52.880;6.016;2023-07-29T05:24:27;4.40;;;2.03;;
54883;SDS011;40776;52.880;6.016;2023-07-29T05:26:53;6.78;;;2.05;;
54883;SDS011;40776;52.880;6.016;2023-07-29T05:29:19;5.15;;;2.13;;
54883;SDS011;40776;52.880;6.016;2023-07-29T05:31:45;5.30;;;2.47;;
54883;SDS011;40776;52.880;6.016;2023-07-29T05:34:11;6.47;;;2.35;;
54883;SDS011;40776;52.880;6.016;2023-07-29T05:36:38;8.65;;;2.38;;
54883;SDS011;40776;52.880;6.016;2023-07-29T05:39:04;5.07;;;2.15;;
54883;SDS011;40776;52.880;6.016;2023-07-29T05:41:30;5.38;;;2.10;;
54883;SDS011;40776;52.880;6.016;2023-07-29T05:43:56;5.97;;;2.40;;
54883;SDS011;40776;52.880;6.016;2023-07-29T05:46:22;6.95;;;2.47;;
54883;SDS011;40776;52.880;6.016;2023-07-29T05:48:48;7.93;;;2.80;;
54883;SDS011;40776;52.880;6.016;2023-07-29T05:51:15;6.95;;;2.17;;
54883;SDS011;40776;52.880;6.016;2023-07-29T05:53:41;5.47;;;2.58;;
54883;SDS011;40776;52.880;6.016;2023-07-29T05:56:07;8.25;;;2.75;;
54883;SDS011;40776;52.880;6.016;2023-07-29T05:58:33;7.22;;;4.00;;
54883;SDS011;40776;52.880;6.016;2023-07-29T06:00:59;5.78;;;2.80;;
54883;SDS011;40776;52.880;6.016;2023-07-29T06:03:25;7.30;;;2.92;;
54883;SDS011;40776;52.880;6.016;2023-07-29T06:05:51;8.00;;;2.92;;
54883;SDS011;40776;52.880;6.016;2023-07-29T06:08:17;6.75;;;2.35;;
54883;SDS011;40776;52.880;6.016;2023-07-29T06:10:44;9.80;;;3.20;;
54883;SDS011;40776;52.880;6.016;2023-07-29T06:13:10;7.18;;;2.92;;
54883;SDS011;40776;52.880;6.016;2023-07-29T06:15:36;6.43;;;2.55;;
54883;SDS011;40776;52.880;6.016;2023-07-29T06:18:02;8.40;;;2.80;;
54883;SDS011;40776;52.880;6.016;2023-07-29T06:20:28;11.73;;;3.83;;
54883;SDS011;40776;52.880;6.016;2023-07-29T06:22:54;15.55;;;3.42;;
54883;SDS011;40776;52.880;6.016;2023-07-29T06:25:20;5.25;;;3.30;;
54883;SDS011;40776;52.880;6.016;2023-07-29T06:27:47;8.63;;;3.45;;
54883;SDS011;40776;52.880;6.016;2023-07-29T06:30:13;8.15;;;3.20;;
54883;SDS011;40776;52.880;6.016;2023-07-29T06:32:39;6.22;;;2.90;;
54883;SDS011;40776;52.880;6.016;2023-07-29T06:35:05;8.00;;;3.20;;
54883;SDS011;40776;52.880;6.016;2023-07-29T06:37:31;9.10;;;3.00;;
54883;SDS011;40776;52.880;6.016;2023-07-29T06:39:58;6.78;;;3.22;;
54883;SDS011;40776;52.880;6.016;2023-07-29T06:42:24;8.75;;;3.30;;
54883;SDS011;40776;52.880;6.016;2023-07-29T06:44:50;9.45;;;3.78;;
54883;SDS011;40776;52.880;6.016;2023-07-29T06:47:16;6.80;;;3.42;;
54883;SDS011;40776;52.880;6.016;2023-07-29T06:49:42;10.95;;;3.70;;
54883;SDS011;40776;52.880;6.016;2023-07-29T06:52:08;6.65;;;3.33;;
54883;SDS011;40776;52.880;6.016;2023-07-29T06:54:34;7.35;;;3.15;;
54883;SDS011;40776;52.880;6.016;2023-07-29T06:57:00;15.25;;;3.00;;
54883;SDS011;40776;52.880;6.016;2023-07-29T06:59:26;6.22;;;2.72;;
54883;SDS011;40776;52.880;6.016;2023-07-29T07:01:52;6.60;;;3.05;;
54883;SDS011;40776;52.880;6.016;2023-07-29T07:04:18;8.43;;;3.42;;
54883;SDS011;40776;52.880;6.016;2023-07-29T07:06:45;8.88;;;3.92;;
54883;SDS011;40776;52.880;6.016;2023-07-29T07:09:11;11.05;;;3.85;;
54883;SDS011;40776;52.880;6.016;2023-07-29T07:11:37;13.77;;;3.40;;
54883;SDS011;40776;52.880;6.016;2023-07-29T07:14:03;6.90;;;3.00;;
54883;SDS011;40776;52.880;6.016;2023-07-29T07:16:29;6.32;;;3.13;;
54883;SDS011;40776;52.880;6.016;2023-07-29T07:18:55;8.88;;;3.00;;
54883;SDS011;40776;52.880;6.016;2023-07-29T07:21:21;6.95;;;2.97;;
54883;SDS011;40776;52.880;6.016;2023-07-29T07:23:48;6.18;;;3.25;;
54883;SDS011;40776;52.880;6.016;2023-07-29T07:26:15;12.38;;;3.83;;
54883;SDS011;40776;52.880;6.016;2023-07-29T07:28:41;10.02;;;3.47;;
54883;SDS011;40776;52.880;6.016;2023-07-29T07:31:07;10.80;;;3.40;;
54883;SDS011;40776;52.880;6.016;2023-07-29T07:33:33;11.00;;;2.92;;
54883;SDS011;40776;52.880;6.016;2023-07-29T07:35:59;6.85;;;2.70;;
54883;SDS011;40776;52.880;6.016;2023-07-29T07:38:25;9.25;;;2.75;;
54883;SDS011;40776;52.880;6.016;2023-07-29T07:40:55;6.88;;;3.00;;
54883;SDS011;40776;52.880;6.016;2023-07-29T07:45:48;5.75;;;2.60;;
54883;SDS011;40776;52.880;6.016;2023-07-29T07:48:14;7.32;;;2.60;;
54883;SDS011;40776;52.880;6.016;2023-07-29T07:50:41;8.57;;;3.58;;
54883;SDS011;40776;52.880;6.016;2023-07-29T07:53:07;9.93;;;3.33;;
54883;SDS011;40776;52.880;6.016;2023-07-29T07:55:34;8.23;;;3.03;;
54883;SDS011;40776;52.880;6.016;2023-07-29T07:58:00;5.75;;;2.58;;
54883;SDS011;40776;52.880;6.016;2023-07-29T08:00:26;6.90;;;2.35;;
54883;SDS011;40776;52.880;6.016;2023-07-29T08:02:54;5.75;;;2.50;;
54883;SDS011;40776;52.880;6.016;2023-07-29T08:05:20;7.50;;;3.10;;
54883;SDS011;40776;52.880;6.016;2023-07-29T08:07:46;7.45;;;2.75;;
54883;SDS011;40776;52.880;6.016;2023-07-29T08:10:12;8.23;;;2.58;;
54883;SDS011;40776;52.880;6.016;2023-07-29T08:12:38;6.78;;;2.50;;
54883;SDS011;40776;52.880;6.016;2023-07-29T08:15:04;5.00;;;2.70;;
54883;SDS011;40776;52.880;6.016;2023-07-29T08:17:31;6.47;;;2.45;;
54883;SDS011;40776;52.880;6.016;2023-07-29T08:19:57;6.38;;;2.63;;
54883;SDS011;40776;52.880;6.016;2023-07-29T08:22:23;8.80;;;2.72;;
54883;SDS011;40776;52.880;6.016;2023-07-29T08:24:49;8.50;;;2.60;;
54883;SDS011;40776;52.880;6.016;2023-07-29T08:27:15;5.93;;;2.10;;
54883;SDS011;40776;52.880;6.016;2023-07-29T08:29:40;5.68;;;2.63;;
54883;SDS011;40776;52.880;6.016;2023-07-29T08:32:06;6.78;;;2.60;;
54883;SDS011;40776;52.880;6.016;2023-07-29T08:34:32;5.72;;;2.10;;
54883;SDS011;40776;52.880;6.016;2023-07-29T08:36:58;4.38;;;1.88;;
54883;SDS011;40776;52.880;6.016;2023-07-29T08:39:25;5.40;;;1.50;;
54883;SDS011;40776;52.880;6.016;2023-07-29T08:44:35;6.70;;;1.70;;
54883;SDS011;40776;52.880;6.016;2023-07-29T08:47:05;6.63;;;1.98;;
54883;SDS011;40776;52.880;6.016;2023-07-29T08:49:31;8.38;;;1.90;;
54883;SDS011;40776;52.880;6.016;2023-07-29T08:51:58;3.97;;;1.85;;
54883;SDS011;40776;52.880;6.016;2023-07-29T08:54:24;6.85;;;2.10;;
54883;SDS011;40776;52.880;6.016;2023-07-29T08:56:51;6.90;;;1.80;;
54883;SDS011;40776;52.880;6.016;2023-07-29T08:59:18;7.78;;;2.13;;
54883;SDS011;40776;52.880;6.016;2023-07-29T09:01:44;5.85;;;2.10;;
54883;SDS011;40776;52.880;6.016;2023-07-29T09:04:10;9.35;;;2.50;;
54883;SDS011;40776;52.880;6.016;2023-07-29T09:06:36;7.13;;;1.88;;
54883;SDS011;40776;52.880;6.016;2023-07-29T09:09:04;4.53;;;1.55;;
54883;SDS011;40776;52.880;6.016;2023-07-29T09:11:30;5.55;;;2.00;;
54883;SDS011;40776;52.880;6.016;2023-07-29T09:13:56;6.82;;;2.35;;
54883;SDS011;40776;52.880;6.016;2023-07-29T09:16:22;7.85;;;2.28;;
54883;SDS011;40776;52.880;6.016;2023-07-29T09:18:49;4.78;;;2.17;;
54883;SDS011;40776;52.880;6.016;2023-07-29T09:21:16;6.63;;;2.63;;
54883;SDS011;40776;52.880;6.016;2023-07-29T09:23:47;5.72;;;2.05;;
54883;SDS011;40776;52.880;6.016;2023-07-29T09:26:18;7.60;;;2.17;;
54883;SDS011;40776;52.880;6.016;2023-07-29T09:28:52;4.15;;;1.77;;
54883;SDS011;40776;52.880;6.016;2023-07-29T09:31:23;6.00;;;1.77;;
54883;SDS011;40776;52.880;6.016;2023-07-29T09:33:55;6.70;;;1.73;;
54883;SDS011;40776;52.880;6.016;2023-07-29T09:36:23;5.03;;;1.95;;
54883;SDS011;40776;52.880;6.016;2023-07-29T09:38:51;8.50;;;1.92;;
54883;SDS011;40776;52.880;6.016;2023-07-29T09:43:44;3.58;;;1.58;;
54883;SDS011;40776;52.880;6.016;2023-07-29T09:46:10;4.80;;;1.50;;
54883;SDS011;40776;52.880;6.016;2023-07-29T09:48:36;2.97;;;1.20;;
54883;SDS011;40776;52.880;6.016;2023-07-29T09:51:09;5.55;;;1.30;;
54883;SDS011;40776;52.880;6.016;2023-07-29T09:53:43;6.03;;;2.15;;
54883;SDS011;40776;52.880;6.016;2023-07-29T09:56:11;5.30;;;1.60;;
54883;SDS011;40776;52.880;6.016;2023-07-29T09:58:38;7.22;;;1.67;;
54883;SDS011;40776;52.880;6.016;2023-07-29T10:01:07;9.27;;;1.65;;
54883;SDS011;40776;52.880;6.016;2023-07-29T10:03:33;5.63;;;1.33;;
54883;SDS011;40776;52.880;6.016;2023-07-29T10:06:00;4.57;;;1.48;;
54883;SDS011;40776;52.880;6.016;2023-07-29T10:08:29;6.25;;;2.35;;
54883;SDS011;40776;52.880;6.016;2023-07-29T10:10:58;4.10;;;0.98;;
54883;SDS011;40776;52.880;6.016;2023-07-29T10:13:25;3.67;;;1.10;;
54883;SDS011;40776;52.880;6.016;2023-07-29T10:15:53;2.53;;;0.98;;
54883;SDS011;40776;52.880;6.016;2023-07-29T10:18:20;2.08;;;0.82;;
54883;SDS011;40776;52.880;6.016;2023-07-29T10:20:48;3.30;;;1.17;;
54883;SDS011;40776;52.880;6.016;2023-07-29T10:23:16;3.42;;;1.00;;
54883;SDS011;40776;52.880;6.016;2023-07-29T10:25:46;3.15;;;1.38;;
54883;SDS011;40776;52.880;6.016;2023-07-29T10:28:15;4.10;;;1.73;;
54883;SDS011;40776;52.880;6.016;2023-07-29T10:30:45;8.18;;;1.30;;
54883;SDS011;40776;52.880;6.016;2023-07-29T10:33:11;5.50;;;1.40;;
54883;SDS011;40776;52.880;6.016;2023-07-29T10:35:37;4.07;;;1.20;;
54883;SDS011;40776;52.880;6.016;2023-07-29T10:38:05;8.75;;;1.65;;
54883;SDS011;40776;52.880;6.016;2023-07-29T10:40:50;5.78;;;1.50;;
54883;SDS011;40776;52.880;6.016;2023-07-29T10:43:39;4.18;;;2.05;;
54883;SDS011;40776;52.880;6.016;2023-07-29T10:46:18;9.90;;;1.70;;
54883;SDS011;40776;52.880;6.016;2023-07-29T10:48:52;4.60;;;1.27;;
54883;SDS011;40776;52.880;6.016;2023-07-29T10:51:25;4.25;;;1.48;;
54883;SDS011;40776;52.880;6.016;2023-07-29T10:56:24;7.30;;;1.50;;
54883;SDS011;40776;52.880;6.016;2023-07-29T10:58:55;4.13;;;1.48;;
54883;SDS011;40776;52.880;6.016;2023-07-29T11:01:31;3.88;;;1.65;;
54883;SDS011;40776;52.880;6.016;2023-07-29T11:04:45;5.85;;;1.80;;
54883;SDS011;40776;52.880;6.016;2023-07-29T11:07:34;5.07;;;1.80;;
54883;SDS011;40776;52.880;6.016;2023-07-29T11:09:41;4.35;;;2.00;;
54883;SDS011;40776;52.880;6.016;2023-07-29T11:17:59;6.68;;;1.73;;
54883;SDS011;40776;52.880;6.016;2023-07-29T11:20:32;5.28;;;1.70;;
54883;SDS011;40776;52.880;6.016;2023-07-29T11:23:02;5.32;;;1.88;;
54883;SDS011;40776;52.880;6.016;2023-07-29T11:25:29;6.43;;;1.90;;
54883;SDS011;40776;52.880;6.016;2023-07-29T11:27:56;5.35;;;1.95;;
54883;SDS011;40776;52.880;6.016;2023-07-29T11:30:23;10.27;;;2.45;;
54883;SDS011;40776;52.880;6.016;2023-07-29T11:32:54;4.78;;;1.98;;
54883;SDS011;40776;52.880;6.016;2023-07-29T11:35:20;6.80;;;2.03;;
54883;SDS011;40776;52.880;6.016;2023-07-29T11:37:48;7.35;;;2.15;;
54883;SDS011;40776;52.880;6.016;2023-07-29T11:40:15;7.20;;;2.30;;
54883;SDS011;40776;52.880;6.016;2023-07-29T11:42:42;7.78;;;2.30;;
54883;SDS011;40776;52.880;6.016;2023-07-29T11:45:08;3.80;;;1.83;;
54883;SDS011;40776;52.880;6.016;2023-07-29T11:47:35;5.15;;;2.20;;
54883;SDS011;40776;52.880;6.016;2023-07-29T11:50:02;4.85;;;2.03;;
54883;SDS011;40776;52.880;6.016;2023-07-29T11:52:30;10.27;;;2.13;;
54883;SDS011;40776;52.880;6.016;2023-07-29T11:54:57;4.93;;;1.92;;
54883;SDS011;40776;52.880;6.016;2023-07-29T11:57:24;3.70;;;1.45;;
54883;SDS011;40776;52.880;6.016;2023-07-29T11:59:50;4.40;;;1.80;;
54883;SDS011;40776;52.880;6.016;2023-07-29T12:02:16;4.68;;;1.50;;
54883;SDS011;40776;52.880;6.016;2023-07-29T12:04:44;7.15;;;1.70;;
54883;SDS011;40776;52.880;6.016;2023-07-29T12:07:12;5.32;;;1.40;;
54883;SDS011;40776;52.880;6.016;2023-07-29T12:09:39;7.57;;;1.95;;
54883;SDS011;40776;52.880;6.016;2023-07-29T12:12:06;10.75;;;1.88;;
54883;SDS011;40776;52.880;6.016;2023-07-29T12:14:32;5.53;;;1.80;;
54883;SDS011;40776;52.880;6.016;2023-07-29T12:16:59;7.90;;;1.88;;
54883;SDS011;40776;52.880;6.016;2023-07-29T12:19:33;4.25;;;1.70;;
54883;SDS011;40776;52.880;6.016;2023-07-29T12:22:01;6.18;;;1.92;;
54883;SDS011;40776;52.880;6.016;2023-07-29T12:24:29;4.18;;;1.58;;
54883;SDS011;40776;52.880;6.016;2023-07-29T12:26:56;7.57;;;2.00;;
54883;SDS011;40776;52.880;6.016;2023-07-29T12:29:22;4.40;;;1.50;;
54883;SDS011;40776;52.880;6.016;2023-07-29T12:31:49;4.70;;;1.55;;
54883;SDS011;40776;52.880;6.016;2023-07-29T12:34:18;9.07;;;1.55;;
54883;SDS011;40776;52.880;6.016;2023-07-29T12:36:48;3.00;;;1.10;;
54883;SDS011;40776;52.880;6.016;2023-07-29T12:41:49;2.00;;;0.98;;
54883;SDS011;40776;52.880;6.016;2023-07-29T12:44:16;2.85;;;1.00;;
54883;SDS011;40776;52.880;6.016;2023-07-29T12:46:43;3.90;;;1.10;;
54883;SDS011;40776;52.880;6.016;2023-07-29T12:49:09;1.92;;;0.90;;
54883;SDS011;40776;52.880;6.016;2023-07-29T12:51:35;5.32;;;1.10;;
54883;SDS011;40776;52.880;6.016;2023-07-29T12:54:02;2.70;;;1.10;;
54883;SDS011;40776;52.880;6.016;2023-07-29T12:56:29;4.20;;;1.27;;
54883;SDS011;40776;52.880;6.016;2023-07-29T12:58:56;2.97;;;0.98;;
54883;SDS011;40776;52.880;6.016;2023-07-29T13:01:23;6.47;;;0.85;;
54883;SDS011;40776;52.880;6.016;2023-07-29T13:03:49;3.38;;;0.90;;
54883;SDS011;40776;52.880;6.016;2023-07-29T13:06:16;2.88;;;0.80;;
54883;SDS011;40776;52.880;6.016;2023-07-29T13:08:42;2.35;;;0.90;;
54883;SDS011;40776;52.880;6.016;2023-07-29T13:11:08;5.85;;;1.30;;
54883;SDS011;40776;52.880;6.016;2023-07-29T13:13:35;1.88;;;0.80;;
54883;SDS011;40776;52.880;6.016;2023-07-29T13:16:01;3.08;;;0.95;;
54883;SDS011;40776;52.880;6.016;2023-07-29T13:18:28;3.35;;;1.48;;
54883;SDS011;40776;52.880;6.016;2023-07-29T13:20:54;7.63;;;1.10;;
54883;SDS011;40776;52.880;6.016;2023-07-29T13:23:20;3.58;;;1.10;;
54883;SDS011;40776;52.880;6.016;2023-07-29T13:25:46;3.45;;;1.17;;
54883;SDS011;40776;52.880;6.016;2023-07-29T13:28:12;3.72;;;1.00;;
54883;SDS011;40776;52.880;6.016;2023-07-29T13:30:39;7.55;;;1.45;;
54883;SDS011;40776;52.880;6.016;2023-07-29T13:33:06;3.42;;;1.20;;
54883;SDS011;40776;52.880;6.016;2023-07-29T13:35:32;2.90;;;1.10;;
54883;SDS011;40776;52.880;6.016;2023-07-29T13:37:58;4.15;;;0.98;;
54883;SDS011;40776;52.880;6.016;2023-07-29T13:40:24;5.22;;;1.10;;
54883;SDS011;40776;52.880;6.016;2023-07-29T13:42:53;4.30;;;0.88;;
54883;SDS011;40776;52.880;6.016;2023-07-29T13:45:19;2.03;;;0.80;;
54883;SDS011;40776;52.880;6.016;2023-07-29T13:47:45;3.33;;;1.02;;
54883;SDS011;40776;52.880;6.016;2023-07-29T13:50:11;4.47;;;1.52;;
54883;SDS011;40776;52.880;6.016;2023-07-29T13:52:37;3.38;;;1.25;;
54883;SDS011;40776;52.880;6.016;2023-07-29T13:55:04;2.72;;;1.13;;
54883;SDS011;40776;52.880;6.016;2023-07-29T13:57:31;4.85;;;0.93;;
54883;SDS011;40776;52.880;6.016;2023-07-29T13:59:57;3.90;;;0.90;;
54883;SDS011;40776;52.880;6.016;2023-07-29T14:02:23;4.18;;;0.93;;
54883;SDS011;40776;52.880;6.016;2023-07-29T14:04:51;2.53;;;0.95;;
54883;SDS011;40776;52.880;6.016;2023-07-29T14:07:17;2.60;;;1.08;;
54883;SDS011;40776;52.880;6.016;2023-07-29T14:09:43;2.30;;;0.98;;
54883;SDS011;40776;52.880;6.016;2023-07-29T14:12:09;3.28;;;0.70;;
54883;SDS011;40776;52.880;6.016;2023-07-29T14:14:43;1.58;;;0.80;;
54883;SDS011;40776;52.880;6.016;2023-07-29T14:17:09;1.05;;;0.60;;
54883;SDS011;40776;52.880;6.016;2023-07-29T14:19:36;2.35;;;0.50;;
54883;SDS011;40776;52.880;6.016;2023-07-29T14:22:02;1.17;;;0.75;;
54883;SDS011;40776;52.880;6.016;2023-07-29T14:24:28;4.13;;;1.10;;
54883;SDS011;40776;52.880;6.016;2023-07-29T14:26:54;2.08;;;0.90;;
54883;SDS011;40776;52.880;6.016;2023-07-29T14:29:20;4.80;;;1.85;;
54883;SDS011;40776;52.880;6.016;2023-07-29T14:31:46;1.88;;;1.02;;
54883;SDS011;40776;52.880;6.016;2023-07-29T14:34:13;3.08;;;0.93;;
54883;SDS011;40776;52.880;6.016;2023-07-29T14:36:39;2.58;;;0.95;;
54883;SDS011;40776;52.880;6.016;2023-07-29T14:39:05;3.58;;;1.02;;
54883;SDS011;40776;52.880;6.016;2023-07-29T14:41:31;2.65;;;0.90;;
54883;SDS011;40776;52.880;6.016;2023-07-29T14:43:57;3.20;;;0.98;;
54883;SDS011;40776;52.880;6.016;2023-07-29T14:46:23;3.55;;;1.00;;
54883;SDS011;40776;52.880;6.016;2023-07-29T14:48:49;2.42;;;0.90;;
54883;SDS011;40776;52.880;6.016;2023-07-29T14:51:15;4.35;;;1.77;;
54883;SDS011;40776;52.880;6.016;2023-07-29T14:53:41;5.88;;;1.50;;
54883;SDS011;40776;52.880;6.016;2023-07-29T14:56:08;3.53;;;1.02;;
54883;SDS011;40776;52.880;6.016;2023-07-29T14:58:35;2.35;;;1.02;;
54883;SDS011;40776;52.880;6.016;2023-07-29T15:01:01;2.88;;;0.90;;
54883;SDS011;40776;52.880;6.016;2023-07-29T15:03:27;3.30;;;0.77;;
54883;SDS011;40776;52.880;6.016;2023-07-29T15:05:53;2.90;;;0.95;;
54883;SDS011;40776;52.880;6.016;2023-07-29T15:08:19;6.20;;;1.40;;
54883;SDS011;40776;52.880;6.016;2023-07-29T15:10:45;2.90;;;1.20;;